Time;durP1;ratioP1;P1;durP2;ratioP2;P2;SDS_P1;SDS_P2;PMS_P1;PMS_P2;Temp;Humidity;BMP_temperature;BMP_pressure;BME280_temperature;BME280_humidity;BME280_pressure;Samples;Min_cycle;Max_cycle;Signal;HPM_P1;HPM_P2
2022/04/18 00:00:28;;;;;;;9.82;6.57;;;;;;;;;;5097836;27;96816;-77
2022/04/18 00:02:55;;;;;;;11.48;7.10;;;;;;;;;;5116180;27;97269;-77
2022/04/18 00:05:22;;;;;;;10.80;6.72;;;;;;;;;;5116682;27;95264;-78
2022/04/18 00:07:51;;;;;;;12.23;7.72;;;;;;;;;;5119878;27;96949;-78
2022/04/18 00:10:23;;;;;;;15.73;7.65;;;;;;;;;;5115563;27;95348;-77
2022/04/18 00:13:00;;;;;;;11.85;7.47;;;;;;;;;;5098353;27;96026;-76
2022/04/18 00:15:43;;;;;;;13.85;7.78;;;;;;;;;;5115421;27;98259;-76
2022/04/18 00:18:12;;;;;;;13.65;8.32;;;;;;;;;;5114498;27;95345;-77
2022/04/18 00:20:39;;;;;;;13.23;8.27;;;;;;;;;;5116595;27;97036;-76
2022/04/18 00:23:20;;;;;;;16.08;8.50;;;;;;;;;;5115881;27;96710;-77
2022/04/18 00:25:47;;;;;;;15.30;8.52;;;;;;;;;;5116713;27;95284;-78
2022/04/18 00:28:15;;;;;;;20.15;9.05;;;;;;;;;;5116277;27;95926;-77
2022/04/18 00:30:42;;;;;;;16.85;9.32;;;;;;;;;;5119401;27;95939;-79
2022/04/18 00:33:11;;;;;;;18.85;10.65;;;;;;;;;;5116653;27;96157;-78
2022/04/18 00:35:39;;;;;;;16.15;10.63;;;;;;;;;;5115268;27;97361;-77
2022/04/18 00:38:05;;;;;;;18.88;10.35;;;;;;;;;;5115702;27;95371;-78
2022/04/18 00:40:32;;;;;;;21.15;10.70;;;;;;;;;;5115801;27;96838;-78
2022/04/18 00:43:03;;;;;;;20.35;12.00;;;;;;;;;;5115580;27;97735;-78
2022/04/18 00:45:36;;;;;;;21.70;11.63;;;;;;;;;;5115996;27;95763;-77
2022/04/18 00:48:05;;;;;;;18.83;12.00;;;;;;;;;;5114809;27;95721;-77
2022/04/18 00:50:38;;;;;;;20.52;12.32;;;;;;;;;;5118621;27;96252;-78
2022/04/18 00:53:06;;;;;;;;;;;;;;;;;;5116488;27;96779;-78
2022/04/18 00:55:34;;;;;;;22.50;12.05;;;;;;;;;;5114801;27;126671;-78
2022/04/18 00:58:05;;;;;;;21.70;12.67;;;;;;;;;;5115117;27;95632;-78
2022/04/18 01:00:38;;;;;;;23.90;12.70;;;;;;;;;;5113937;27;95591;-78
2022/04/18 01:03:07;;;;;;;21.27;13.02;;;;;;;;;;5115697;27;96659;-78
2022/04/18 01:05:37;;;;;;;24.92;13.43;;;;;;;;;;5096562;27;95513;-77
2022/04/18 01:08:06;;;;;;;21.08;13.98;;;;;;;;;;5114673;27;96108;-77
2022/04/18 01:10:40;;;;;;;27.50;14.02;;;;;;;;;;5114993;27;97305;-77
2022/04/18 01:13:08;;;;;;;41.60;14.90;;;;;;;;;;5117106;27;95351;-77
2022/04/18 01:15:38;;;;;;;23.65;14.52;;;;;;;;;;5114573;27;97293;-77
2022/04/18 01:18:11;;;;;;;25.02;14.82;;;;;;;;;;5114599;27;96210;-77
2022/04/18 01:20:44;;;;;;;33.42;16.13;;;;;;;;;;5091979;27;96657;-78
2022/04/18 01:23:13;;;;;;;29.35;15.25;;;;;;;;;;5076362;27;96411;-77
2022/04/18 01:31:14;;;;;;;27.80;16.30;;;;;;;;;;5114781;27;97764;-77
2022/04/18 01:33:42;;;;;;;35.40;16.23;;;;;;;;;;5115206;27;95070;-77
2022/04/18 01:36:09;;;;;;;41.55;15.75;;;;;;;;;;5099847;27;96748;-77
2022/04/18 01:38:36;;;;;;;35.17;15.63;;;;;;;;;;5113639;27;95449;-77
2022/04/18 01:41:03;;;;;;;23.48;13.85;;;;;;;;;;5115342;27;98079;-77
2022/04/18 01:43:30;;;;;;;26.73;13.95;;;;;;;;;;5114956;27;95329;-77
2022/04/18 01:45:56;;;;;;;31.52;15.18;;;;;;;;;;5114047;27;94990;-77
2022/04/18 01:48:23;;;;;;;27.83;13.43;;;;;;;;;;5114689;27;96812;-77
2022/04/18 01:50:49;;;;;;;35.67;14.80;;;;;;;;;;5113927;27;96557;-78
2022/04/18 01:53:18;;;;;;;25.83;13.75;;;;;;;;;;5114438;27;95186;-78
2022/04/18 01:55:45;;;;;;;27.38;14.32;;;;;;;;;;5114839;27;96929;-78
2022/04/18 01:58:11;;;;;;;41.67;15.23;;;;;;;;;;5118003;27;97639;-78
2022/04/18 02:00:38;;;;;;;23.08;14.15;;;;;;;;;;5113925;27;95914;-79
2022/04/18 02:03:04;;;;;;;24.45;14.60;;;;;;;;;;5114860;27;97197;-78
2022/04/18 02:05:31;;;;;;;30.45;15.50;;;;;;;;;;5114068;27;95423;-77
2022/04/18 02:07:57;;;;;;;22.25;12.57;;;;;;;;;;5114414;27;97076;-77
2022/04/18 02:10:23;;;;;;;19.50;12.57;;;;;;;;;;5114188;27;97327;-78
2022/04/18 02:12:50;;;;;;;18.95;11.52;;;;;;;;;;5114724;27;96797;-77
2022/04/18 02:15:19;;;;;;;16.88;10.75;;;;;;;;;;5113853;27;97182;-77
2022/04/18 02:17:51;;;;;;;17.90;10.50;;;;;;;;;;5113443;27;96265;-78
2022/04/18 02:20:23;;;;;;;27.08;12.55;;;;;;;;;;5117100;27;95326;-77
2022/04/18 02:23:04;;;;;;;23.02;12.95;;;;;;;;;;5113971;27;96734;-77
2022/04/18 02:25:35;;;;;;;21.13;12.10;;;;;;;;;;5112205;27;95391;-77
2022/04/18 02:28:01;;;;;;;26.13;12.73;;;;;;;;;;5114320;27;96710;-77
2022/04/18 02:30:28;;;;;;;24.27;13.75;;;;;;;;;;5113827;27;97528;-77
2022/04/18 02:32:54;;;;;;;22.73;13.93;;;;;;;;;;5114669;27;95305;-77
2022/04/18 02:35:23;;;;;;;17.98;12.93;;;;;;;;;;5114325;27;95967;-78
2022/04/18 02:37:50;;;;;;;25.23;13.05;;;;;;;;;;5114028;27;97283;-78
2022/04/18 02:40:17;;;;;;;21.02;11.50;;;;;;;;;;5114589;27;95500;-77
2022/04/18 02:42:44;;;;;;;15.45;10.63;;;;;;;;;;5101842;27;97231;-77
2022/04/18 02:45:18;;;;;;;18.20;11.57;;;;;;;;;;5099231;27;95391;-77
2022/04/18 02:47:45;;;;;;;25.38;10.95;;;;;;;;;;5117770;27;96218;-77
2022/04/18 02:50:12;;;;;;;16.95;10.05;;;;;;;;;;5116038;27;97334;-77
2022/04/18 02:52:39;;;;;;;17.15;10.43;;;;;;;;;;5117523;27;95426;-78
2022/04/18 02:55:05;;;;;;;16.73;9.80;;;;;;;;;;5118110;27;96823;-77
2022/04/18 02:57:32;;;;;;;13.52;9.40;;;;;;;;;;5098373;27;97332;-77
2022/04/18 02:59:58;;;;;;;21.42;10.07;;;;;;;;;;5117912;27;95340;-77
2022/04/18 03:02:24;;;;;;;18.88;10.07;;;;;;;;;;5119091;27;95322;-77
2022/04/18 03:04:51;;;;;;;17.13;11.50;;;;;;;;;;5098270;27;95287;-78
2022/04/18 03:07:19;;;;;;;18.15;11.45;;;;;;;;;;5115623;27;96827;-77
2022/04/18 03:09:46;;;;;;;19.38;12.40;;;;;;;;;;5117652;27;97391;-78
2022/04/18 03:12:12;;;;;;;17.55;11.52;;;;;;;;;;5117045;27;96003;-77
2022/04/18 03:14:38;;;;;;;24.63;12.93;;;;;;;;;;5117369;27;97093;-78
2022/04/18 03:17:05;;;;;;;18.85;12.15;;;;;;;;;;5095952;27;97424;-77
2022/04/18 03:19:32;;;;;;;22.27;13.57;;;;;;;;;;5116374;27;95430;-77
2022/04/18 03:21:59;;;;;;;24.50;14.25;;;;;;;;;;5117446;27;96544;-78
2022/04/18 03:24:26;;;;;;;20.38;13.63;;;;;;;;;;5119468;27;97247;-77
2022/04/18 03:26:52;;;;;;;25.35;12.98;;;;;;;;;;5117347;27;96833;-77
2022/04/18 03:29:19;;;;;;;25.52;15.25;;;;;;;;;;5116900;27;96202;-77
2022/04/18 03:31:45;;;;;;;24.63;13.43;;;;;;;;;;5116743;27;95405;-78
2022/04/18 03:34:12;;;;;;;19.52;13.40;;;;;;;;;;5117406;27;96816;-77
2022/04/18 03:42:09;;;;;;;26.20;13.20;;;;;;;;;;5116740;27;98128;-77
2022/04/18 03:44:40;;;;;;;19.05;12.77;;;;;;;;;;5106197;27;97334;-78
2022/04/18 03:47:07;;;;;;;21.10;13.05;;;;;;;;;;5107131;27;95569;-78
2022/04/18 03:49:33;;;;;;;21.52;12.93;;;;;;;;;;5116593;27;97363;-78
2022/04/18 03:52:00;;;;;;;23.63;13.10;;;;;;;;;;5116110;27;95404;-78
2022/04/18 03:54:26;;;;;;;19.33;12.38;;;;;;;;;;5116295;27;96714;-78
2022/04/18 03:56:55;;;;;;;18.45;12.20;;;;;;;;;;5116317;27;97571;-78
2022/04/18 03:59:22;;;;;;;24.45;12.77;;;;;;;;;;5116205;27;95177;-77
2022/04/18 04:01:48;;;;;;;18.65;12.10;;;;;;;;;;5116646;27;97074;-78
2022/04/18 04:04:15;;;;;;;21.15;12.25;;;;;;;;;;5116772;27;97313;-78
2022/04/18 04:06:41;;;;;;;22.33;12.52;;;;;;;;;;5116134;27;95415;-78
2022/04/18 04:09:08;;;;;;;18.85;11.75;;;;;;;;;;5118911;27;95615;-77
2022/04/18 04:11:38;;;;;;;23.83;12.00;;;;;;;;;;5116149;27;95355;-77
2022/04/18 04:14:08;;;;;;;18.42;11.50;;;;;;;;;;5116749;27;95511;-78
2022/04/18 04:16:37;;;;;;;18.65;12.45;;;;;;;;;;5115867;27;97391;-78
2022/04/18 04:19:05;;;;;;;19.92;11.57;;;;;;;;;;5115244;27;95303;-78
2022/04/18 04:21:32;;;;;;;20.77;12.20;;;;;;;;;;5115085;27;95875;-78
2022/04/18 04:23:58;;;;;;;22.77;11.48;;;;;;;;;;5116249;27;97432;-77
2022/04/18 04:26:24;;;;;;;18.92;11.43;;;;;;;;;;5116257;27;95405;-77
2022/04/18 04:28:51;;;;;;;18.75;10.40;;;;;;;;;;5115459;27;96941;-77
2022/04/18 04:31:18;;;;;;;26.33;11.65;;;;;;;;;;5100595;27;97330;-78
2022/04/18 04:33:44;;;;;;;19.98;10.18;;;;;;;;;;5116397;27;97069;-78
2022/04/18 04:36:12;;;;;;;15.35;10.13;;;;;;;;;;5097249;27;97795;-80
2022/04/18 04:38:38;;;;;;;16.27;10.43;;;;;;;;;;5115558;27;95370;-78
2022/04/18 04:41:05;;;;;;;17.35;10.50;;;;;;;;;;5115878;27;96932;-79
2022/04/18 04:43:32;;;;;;;15.48;10.23;;;;;;;;;;5115000;27;97440;-79
2022/04/18 04:46:00;;;;;;;15.63;9.90;;;;;;;;;;5115337;27;95336;-79
2022/04/18 04:48:27;;;;;;;20.80;10.77;;;;;;;;;;5114408;27;97112;-79
2022/04/18 04:50:53;;;;;;;19.98;9.98;;;;;;;;;;5115821;27;97423;-79
2022/04/18 04:53:19;;;;;;;18.52;10.02;;;;;;;;;;5118857;27;95113;-79
2022/04/18 04:55:46;;;;;;;22.50;10.95;;;;;;;;;;5115468;27;97371;-79
2022/04/18 04:58:12;;;;;;;25.27;10.95;;;;;;;;;;5114480;27;95323;-79
2022/04/18 05:00:39;;;;;;;17.55;9.90;;;;;;;;;;5092436;27;96850;-79
2022/04/18 05:03:06;;;;;;;18.45;10.32;;;;;;;;;;5113429;27;97392;-77
2022/04/18 07:13:27;;;;;;;8.77;5.07;;;;;;;;;;4998025;27;162962;-77
2022/04/18 07:15:53;;;;;;;8.45;4.88;;;;;;;;;;5007107;28;96263;-75
2022/04/18 07:18:20;;;;;;;9.93;4.93;;;;;;;;;;5008825;28;95500;-76
2022/04/18 07:20:47;;;;;;;7.68;4.82;;;;;;;;;;5008745;28;96672;-75
2022/04/18 07:23:13;;;;;;;7.57;4.22;;;;;;;;;;5005890;28;97462;-76
2022/04/18 07:25:39;;;;;;;9.50;5.00;;;;;;;;;;5007840;28;95393;-76
2022/04/18 07:28:06;;;;;;;6.22;3.92;;;;;;;;;;5009516;28;97107;-77
2022/04/18 07:30:32;;;;;;;8.30;4.30;;;;;;;;;;5008690;28;97661;-77
2022/04/18 07:32:59;;;;;;;7.22;4.25;;;;;;;;;;5012847;28;95496;-77
2022/04/18 07:35:26;;;;;;;13.32;4.78;;;;;;;;;;5008290;28;96171;-77
2022/04/18 07:40:37;;;;;;;7.35;3.88;;;;;;;;;;5008793;28;97163;-78
2022/04/18 07:43:07;;;;;;;13.27;4.55;;;;;;;;;;5008181;28;97344;-78
2022/04/18 07:45:35;;;;;;;7.63;4.25;;;;;;;;;;5008213;28;96533;-78
2022/04/18 07:48:02;;;;;;;10.82;4.13;;;;;;;;;;5008596;28;96781;-78
2022/04/18 07:51:32;;;;;;;7.97;4.50;;;;;;;;;;5007540;28;97702;-75
2022/04/18 07:53:14;;;;;;;10.23;4.18;;;;;;;;;;4993345;28;95332;-75
2022/04/18 07:55:41;;;;;;;7.93;3.83;;;;;;;;;;5011962;28;97121;-75
2022/04/18 07:58:07;;;;;;;6.32;4.00;;;;;;;;;;5008743;28;95097;-77
2022/04/18 08:00:33;;;;;;;6.28;3.80;;;;;;;;;;5007162;28;96776;-77
2022/04/18 08:03:00;;;;;;;8.63;4.07;;;;;;;;;;5008895;28;97454;-77
2022/04/18 08:05:26;;;;;;;7.70;3.60;;;;;;;;;;5008814;28;95388;-77
2022/04/18 08:07:52;;;;;;;5.93;3.55;;;;;;;;;;5008918;28;95870;-77
2022/04/18 08:10:19;;;;;;;8.15;3.83;;;;;;;;;;5008188;28;97351;-76
2022/04/18 08:12:45;;;;;;;7.28;3.80;;;;;;;;;;5007417;28;95349;-76
2022/04/18 08:15:12;;;;;;;8.73;3.67;;;;;;;;;;5009008;28;96748;-76
2022/04/18 08:17:38;;;;;;;6.13;3.60;;;;;;;;;;5011767;28;97411;-77
2022/04/18 08:20:05;;;;;;;5.68;3.88;;;;;;;;;;5007847;28;96903;-76
2022/04/18 08:22:31;;;;;;;7.85;3.85;;;;;;;;;;5008102;28;97515;-77
2022/04/18 08:24:58;;;;;;;5.82;3.60;;;;;;;;;;4995175;28;95047;-77
2022/04/18 08:27:24;;;;;;;6.03;3.63;;;;;;;;;;4994602;28;96926;-77
2022/04/18 08:29:50;;;;;;;10.15;3.67;;;;;;;;;;4994123;28;96094;-76
2022/04/18 08:32:16;;;;;;;9.35;4.05;;;;;;;;;;4994884;28;95368;-77
2022/04/18 08:34:43;;;;;;;5.75;3.65;;;;;;;;;;4993340;28;96553;-76
2022/04/18 08:37:09;;;;;;;9.20;4.10;;;;;;;;;;4994721;28;97350;-77
2022/04/18 08:39:35;;;;;;;6.45;3.97;;;;;;;;;;4957659;28;95378;-77
2022/04/18 08:42:04;;;;;;;6.97;4.07;;;;;;;;;;4975801;28;97362;-76
2022/04/18 08:44:30;;;;;;;6.85;3.55;;;;;;;;;;4989942;28;95636;-76
2022/04/18 08:46:57;;;;;;;5.95;3.83;;;;;;;;;;4994390;28;96745;-76
2022/04/18 08:54:53;;;;;;;6.57;3.88;;;;;;;;;;4994281;28;96714;-76
2022/04/18 08:57:23;;;;;;;7.38;4.00;;;;;;;;;;4993831;28;97507;-77
2022/04/18 08:59:49;;;;;;;7.18;3.53;;;;;;;;;;4993290;28;95348;-78
2022/04/18 09:02:15;;;;;;;5.10;3.20;;;;;;;;;;4991067;28;96791;-80
2022/04/18 09:04:43;;;;;;;5.93;3.58;;;;;;;;;;4991039;28;95360;-76
2022/04/18 09:07:11;;;;;;;7.05;3.63;;;;;;;;;;4993951;28;96864;-76
2022/04/18 09:09:37;;;;;;;11.90;3.75;;;;;;;;;;4993811;28;96166;-77
2022/04/18 09:12:33;;;;;;;7.15;3.63;;;;;;;;;;4989438;28;95357;-78
2022/04/18 09:14:59;;;;;;;6.82;3.92;;;;;;;;;;4975211;28;95872;-76
2022/04/18 09:17:33;;;;;;;6.13;3.80;;;;;;;;;;4992832;28;97825;-79
2022/04/18 09:20:07;;;;;;;4.80;3.30;;;;;;;;;;4994844;28;95336;-76
2022/04/18 09:22:51;;;;;;;6.07;3.65;;;;;;;;;;4976629;28;97083;-75
2022/04/18 09:25:19;;;;;;;7.70;3.60;;;;;;;;;;4996783;28;95059;-80
2022/04/18 09:27:48;;;;;;;8.07;3.70;;;;;;;;;;4994804;28;96872;-77
2022/04/18 09:30:18;;;;;;;5.22;3.40;;;;;;;;;;4994197;28;97291;-76
2022/04/18 09:33:01;;;;;;;8.57;3.72;;;;;;;;;;4994390;28;96085;-76
2022/04/18 09:35:28;;;;;;;6.20;3.35;;;;;;;;;;4993246;28;96744;-79
2022/04/18 09:38:02;;;;;;;7.75;3.65;;;;;;;;;;4993087;28;97388;-83
2022/04/18 09:40:30;;;;;;;6.82;3.50;;;;;;;;;;4995001;28;95410;-84
2022/04/18 09:42:57;;;;;;;6.18;3.40;;;;;;;;;;4994810;28;100428;-80
2022/04/18 09:45:27;;;;;;;6.63;2.90;;;;;;;;;;4996576;28;97341;-79
2022/04/18 09:47:54;;;;;;;4.82;3.05;;;;;;;;;;4994403;28;96683;-83
2022/04/18 09:53:15;;;;;;;8.88;3.20;;;;;;;;;;4993674;28;95185;-83
2022/04/18 09:55:45;;;;;;;8.93;3.38;;;;;;;;;;4994663;28;97976;-83
2022/04/18 09:58:12;;;;;;;6.93;3.30;;;;;;;;;;4993126;28;97343;-83
2022/04/18 10:01:00;;;;;;;6.32;3.10;;;;;;;;;;4993769;28;95258;-82
2022/04/18 10:03:31;;;;;;;8.65;3.25;;;;;;;;;;4994166;28;96833;-82
2022/04/18 10:05:58;;;;;;;5.75;3.10;;;;;;;;;;4993394;28;97130;-82
2022/04/18 10:08:25;;;;;;;4.75;2.88;;;;;;;;;;4996808;28;95340;-82
2022/04/18 10:10:52;;;;;;;5.78;2.92;;;;;;;;;;4993808;28;97469;-82
2022/04/18 10:13:20;;;;;;;9.38;2.50;;;;;;;;;;4992975;28;95158;-83
2022/04/18 10:15:48;;;;;;;6.32;2.63;;;;;;;;;;4994051;28;97129;-82
2022/04/18 10:18:15;;;;;;;5.90;2.65;;;;;;;;;;4993257;28;96220;-82
2022/04/18 10:21:02;;;;;;;4.75;2.42;;;;;;;;;;4993504;28;95333;-83
2022/04/18 10:23:37;;;;;;;3.88;2.10;;;;;;;;;;4993233;28;96863;-82
2022/04/18 10:26:07;;;;;;;4.28;2.78;;;;;;;;;;4992768;28;97751;-83
2022/04/18 10:28:41;;;;;;;5.85;2.90;;;;;;;;;;4993126;28;95475;-83
2022/04/18 10:31:25;;;;;;;8.10;3.10;;;;;;;;;;4995576;28;96751;-78
2022/04/18 10:33:52;;;;;;;4.43;2.40;;;;;;;;;;4991789;28;95342;-79
2022/04/18 10:36:25;;;;;;;5.13;2.40;;;;;;;;;;4991173;28;96906;-81
2022/04/18 10:38:52;;;;;;;3.38;2.28;;;;;;;;;;4992106;28;97643;-79
2022/04/18 10:41:34;;;;;;;4.68;2.55;;;;;;;;;;4989774;28;95628;-79
2022/04/18 10:44:20;;;;;;;5.15;2.58;;;;;;;;;;4973558;28;96759;-79
2022/04/18 10:46:56;;;;;;;4.35;2.50;;;;;;;;;;4985154;28;97419;-81
2022/04/18 10:49:27;;;;;;;4.18;2.30;;;;;;;;;;4990556;28;96221;-79
2022/04/18 10:51:54;;;;;;;4.10;2.67;;;;;;;;;;4993332;28;97122;-82
2022/04/18 10:54:21;;;;;;;4.03;2.30;;;;;;;;;;4995492;28;97702;-79
2022/04/18 10:57:01;;;;;;;4.93;2.90;;;;;;;;;;4990913;28;96731;-80
2022/04/18 10:59:28;;;;;;;7.25;2.53;;;;;;;;;;4991072;28;97340;-79
2022/04/18 11:01:56;;;;;;;5.57;2.50;;;;;;;;;;4991408;28;95382;-81
2022/04/18 11:04:26;;;;;;;7.13;2.80;;;;;;;;;;4990517;28;96930;-80
2022/04/18 11:07:01;;;;;;;5.40;2.80;;;;;;;;;;4991323;28;97901;-81
2022/04/18 11:09:28;;;;;;;4.40;2.70;;;;;;;;;;4992236;28;95478;-78
2022/04/18 11:12:01;;;;;;;4.80;2.65;;;;;;;;;;4992668;28;96083;-78
2022/04/18 11:14:27;;;;;;;6.30;2.90;;;;;;;;;;4992879;28;97838;-79
2022/04/18 11:16:58;;;;;;;5.45;2.60;;;;;;;;;;4995536;28;95542;-80
2022/04/18 11:19:28;;;;;;;4.30;2.70;;;;;;;;;;4992645;28;97126;-82
2022/04/18 11:21:55;;;;;;;6.88;2.90;;;;;;;;;;4993095;28;95435;-83
2022/04/18 11:24:36;;;;;;;5.07;2.72;;;;;;;;;;4991901;28;96794;-81
2022/04/18 11:27:05;;;;;;;3.60;2.37;;;;;;;;;;4992692;28;97355;-82
2022/04/18 11:29:32;;;;;;;4.53;2.25;;;;;;;;;;4974103;28;95494;-82
2022/04/18 11:31:58;;;;;;;5.32;2.60;;;;;;;;;;4992311;28;96686;-82
2022/04/18 11:34:25;;;;;;;5.38;2.60;;;;;;;;;;4991568;28;97272;-80
2022/04/18 11:36:55;;;;;;;6.70;2.15;;;;;;;;;;4995133;28;95330;-81
2022/04/18 11:39:22;;;;;;;4.03;2.20;;;;;;;;;;4991360;28;97527;-81
2022/04/18 11:41:48;;;;;;;5.15;2.72;;;;;;;;;;4992085;28;95567;-82
2022/04/18 11:44:18;;;;;;;6.15;2.22;;;;;;;;;;4991970;28;96730;-78
2022/04/18 11:46:45;;;;;;;5.75;2.55;;;;;;;;;;4992268;28;97350;-78
2022/04/18 11:49:12;;;;;;;5.25;2.60;;;;;;;;;;4992365;28;95269;-81
2022/04/18 11:51:42;;;;;;;7.13;2.70;;;;;;;;;;4991444;28;96968;-79
2022/04/18 11:54:08;;;;;;;4.75;2.70;;;;;;;;;;4992462;28;97786;-81
2022/04/18 11:56:34;;;;;;;6.22;2.90;;;;;;;;;;4991887;28;95353;-78
2022/04/18 11:59:04;;;;;;;4.97;2.90;;;;;;;;;;4996083;28;96946;-78
2022/04/18 12:07:00;;;;;;;5.05;3.05;;;;;;;;;;4992965;28;97416;-80
2022/04/18 12:09:27;;;;;;;4.45;3.00;;;;;;;;;;4992866;28;96758;-78
2022/04/18 12:11:54;;;;;;;4.72;3.17;;;;;;;;;;4994134;28;95748;-79
2022/04/18 12:14:20;;;;;;;7.57;3.55;;;;;;;;;;4993151;28;97306;-78
2022/04/18 12:16:47;;;;;;;7.38;3.55;;;;;;;;;;4993885;28;95759;-79
2022/04/18 12:19:15;;;;;;;6.30;3.53;;;;;;;;;;4992570;28;97084;-78
2022/04/18 12:21:42;;;;;;;5.22;3.30;;;;;;;;;;4992089;28;97376;-79
2022/04/18 12:24:09;;;;;;;6.80;3.83;;;;;;;;;;4977090;28;96871;-78
2022/04/18 12:26:35;;;;;;;6.93;3.70;;;;;;;;;;4976133;28;97757;-79
2022/04/18 12:29:06;;;;;;;5.60;3.45;;;;;;;;;;4977384;28;95468;-78
2022/04/18 12:31:32;;;;;;;5.80;3.70;;;;;;;;;;4994755;28;96781;-79
2022/04/18 12:33:59;;;;;;;12.90;3.78;;;;;;;;;;4994468;28;97585;-79
2022/04/18 12:36:27;;;;;;;10.38;4.15;;;;;;;;;;4994887;28;95400;-79
2022/04/18 12:38:53;;;;;;;6.40;4.15;;;;;;;;;;4995055;28;96799;-79
2022/04/18 12:41:30;;;;;;;4.65;3.60;;;;;;;;;;4993925;28;97461;-80
2022/04/18 12:43:56;;;;;;;6.00;3.58;;;;;;;;;;4998091;28;95449;-79
2022/04/18 12:46:25;;;;;;;6.65;3.65;;;;;;;;;;4994327;28;97311;-80
2022/04/18 12:48:51;;;;;;;7.28;3.97;;;;;;;;;;4976491;28;95467;-79
2022/04/18 12:51:28;;;;;;;5.45;3.72;;;;;;;;;;4994648;28;95472;-79
2022/04/18 12:53:55;;;;;;;5.95;3.75;;;;;;;;;;4994426;28;97324;-79
2022/04/18 12:56:23;;;;;;;6.20;4.00;;;;;;;;;;4995000;28;95384;-82
2022/04/18 12:59:06;;;;;;;9.77;3.53;;;;;;;;;;4994508;28;96906;-81
2022/04/18 13:01:34;;;;;;;7.25;3.53;;;;;;;;;;4993912;28;97366;-83
2022/04/18 13:04:02;;;;;;;9.05;4.15;;;;;;;;;;4994576;28;95304;-80
2022/04/18 13:06:29;;;;;;;5.20;3.60;;;;;;;;;;4997523;28;96994;-82
2022/04/18 13:08:57;;;;;;;6.47;3.95;;;;;;;;;;4994041;28;95344;-82
2022/04/18 13:11:34;;;;;;;5.78;3.80;;;;;;;;;;4993915;28;95696;-84
2022/04/18 13:14:02;;;;;;;5.95;3.67;;;;;;;;;;4994177;28;97283;-84
2022/04/18 13:16:28;;;;;;;8.18;3.80;;;;;;;;;;4993714;28;95270;-83
2022/04/18 13:19:04;;;;;;;12.48;3.67;;;;;;;;;;4994079;28;96801;-82
2022/04/18 13:21:31;;;;;;;5.80;4.20;;;;;;;;;;4993605;28;97373;-82
2022/04/18 13:24:00;;;;;;;6.28;3.83;;;;;;;;;;4989716;28;95250;-82
2022/04/18 13:26:26;;;;;;;7.90;3.70;;;;;;;;;;4993051;28;96781;-82
2022/04/18 13:28:53;;;;;;;6.72;3.90;;;;;;;;;;4994211;28;97443;-80
2022/04/18 13:31:21;;;;;;;6.40;3.38;;;;;;;;;;4993713;28;96827;-82
2022/04/18 13:33:51;;;;;;;5.38;3.47;;;;;;;;;;4989785;28;97404;-83
2022/04/18 13:39:03;;;;;;;5.25;3.00;;;;;;;;;;4994039;28;96889;-80
2022/04/18 13:41:30;;;;;;;5.57;3.50;;;;;;;;;;4990644;28;97411;-82
2022/04/18 13:43:56;;;;;;;5.00;3.20;;;;;;;;;;4993372;28;95512;-82
2022/04/18 13:46:23;;;;;;;5.53;3.47;;;;;;;;;;4993147;28;96780;-82
2022/04/18 13:48:50;;;;;;;9.55;4.00;;;;;;;;;;4996344;28;97507;-80
2022/04/18 13:51:17;;;;;;;5.38;3.55;;;;;;;;;;4992933;28;97148;-80
2022/04/18 13:53:43;;;;;;;7.20;3.80;;;;;;;;;;4993038;28;96301;-78
2022/04/18 13:56:09;;;;;;;6.45;3.20;;;;;;;;;;4994299;28;95336;-80
2022/04/18 13:58:36;;;;;;;5.78;3.22;;;;;;;;;;4993435;28;97156;-83
2022/04/18 14:01:02;;;;;;;8.35;3.50;;;;;;;;;;4993575;28;97561;-82
2022/04/18 14:03:29;;;;;;;6.65;3.40;;;;;;;;;;4993271;28;95266;-81
2022/04/18 14:05:57;;;;;;;7.38;3.60;;;;;;;;;;4993201;28;97150;-80
2022/04/18 14:08:23;;;;;;;10.65;4.10;;;;;;;;;;4992988;28;97592;-81
2022/04/18 14:10:50;;;;;;;7.10;4.13;;;;;;;;;;4996942;28;96559;-79
2022/04/18 14:13:16;;;;;;;5.30;3.63;;;;;;;;;;4992138;28;97305;-79
2022/04/18 14:21:13;;;;;;;6.15;4.13;;;;;;;;;;4992715;28;97614;-78
2022/04/18 14:23:41;;;;;;;19.60;4.60;;;;;;;;;;4993024;28;95191;-82
2022/04/18 14:26:07;;;;;;;7.63;4.25;;;;;;;;;;4992767;28;97212;-80
2022/04/18 14:28:35;;;;;;;7.88;3.80;;;;;;;;;;4992099;28;96496;-83
2022/04/18 14:31:01;;;;;;;8.88;4.78;;;;;;;;;;4992920;28;95323;-79
2022/04/18 14:33:27;;;;;;;7.40;4.32;;;;;;;;;;4995535;28;97128;-79
2022/04/18 14:35:54;;;;;;;6.95;4.32;;;;;;;;;;4993272;28;95155;-78
2022/04/18 14:38:20;;;;;;;6.18;4.10;;;;;;;;;;4993276;28;97157;-79
2022/04/18 14:40:47;;;;;;;8.77;4.10;;;;;;;;;;4992357;28;97301;-78
2022/04/18 14:43:16;;;;;;;6.95;3.97;;;;;;;;;;4992048;28;95006;-79
2022/04/18 14:45:42;;;;;;;6.75;4.40;;;;;;;;;;4992224;28;96811;-80
2022/04/18 14:48:09;;;;;;;7.47;4.40;;;;;;;;;;4991699;28;97589;-78
2022/04/18 14:50:35;;;;;;;5.95;3.83;;;;;;;;;;4989940;28;96949;-78
2022/04/18 14:53:07;;;;;;;7.68;4.10;;;;;;;;;;4973814;28;96829;-79
2022/04/18 14:55:33;;;;;;;9.02;4.10;;;;;;;;;;4975109;28;97380;-78
2022/04/18 14:57:59;;;;;;;7.45;3.85;;;;;;;;;;4993043;28;96538;-79
2022/04/18 15:00:25;;;;;;;7.78;4.60;;;;;;;;;;4991598;28;97338;-78
2022/04/18 15:02:52;;;;;;;8.93;4.10;;;;;;;;;;4992696;28;95400;-77
2022/04/18 15:05:19;;;;;;;7.18;3.58;;;;;;;;;;4992320;28;96797;-79
2022/04/18 15:07:45;;;;;;;8.95;3.80;;;;;;;;;;4992047;28;97244;-78
2022/04/18 15:10:13;;;;;;;6.20;3.58;;;;;;;;;;4990090;28;95500;-81
2022/04/18 15:12:39;;;;;;;5.28;3.60;;;;;;;;;;4990875;28;96903;-76
2022/04/18 15:15:06;;;;;;;6.20;3.78;;;;;;;;;;4991358;28;97425;-77
2022/04/18 15:17:32;;;;;;;14.73;3.95;;;;;;;;;;4981651;28;95134;-78
2022/04/18 15:19:58;;;;;;;13.05;3.75;;;;;;;;;;4956384;28;97460;-79
2022/04/18 15:22:25;;;;;;;6.82;3.63;;;;;;;;;;4985484;28;95885;-79
2022/04/18 15:24:51;;;;;;;7.93;3.85;;;;;;;;;;4992319;28;96810;-78
2022/04/18 15:27:17;;;;;;;5.72;3.83;;;;;;;;;;4992156;28;97813;-78
2022/04/18 15:29:44;;;;;;;6.90;3.80;;;;;;;;;;4991617;28;95424;-77
2022/04/18 15:32:10;;;;;;;10.98;4.40;;;;;;;;;;4991880;28;97184;-77
2022/04/18 15:34:38;;;;;;;5.72;3.72;;;;;;;;;;4989098;28;97345;-77
2022/04/18 15:37:05;;;;;;;6.05;3.58;;;;;;;;;;4995402;28;95142;-77
2022/04/18 15:39:32;;;;;;;5.40;3.45;;;;;;;;;;4997930;28;96809;-78
2022/04/18 15:41:59;;;;;;;10.60;3.58;;;;;;;;;;4994229;28;97322;-76
2022/04/18 15:44:27;;;;;;;5.57;3.47;;;;;;;;;;4993099;28;96897;-77
2022/04/18 15:46:57;;;;;;;6.90;3.40;;;;;;;;;;4994952;28;97379;-76
2022/04/18 15:49:24;;;;;;;8.35;3.75;;;;;;;;;;4995063;28;95182;-77
2022/04/18 15:51:52;;;;;;;12.07;3.38;;;;;;;;;;4994967;28;96728;-77
2022/04/18 15:54:19;;;;;;;6.57;3.90;;;;;;;;;;4995028;28;96253;-77
2022/04/18 15:56:45;;;;;;;6.50;3.53;;;;;;;;;;4995112;28;95180;-77
2022/04/18 15:59:12;;;;;;;5.63;3.30;;;;;;;;;;4992239;28;96825;-77
2022/04/18 16:01:38;;;;;;;7.82;3.60;;;;;;;;;;4985717;28;95789;-81
2022/04/18 16:04:06;;;;;;;5.18;3.35;;;;;;;;;;4991237;28;96854;-81
2022/04/18 16:06:33;;;;;;;5.82;3.30;;;;;;;;;;4993553;28;97508;-80
2022/04/18 16:08:59;;;;;;;5.50;3.20;;;;;;;;;;4984307;28;95486;-77
2022/04/18 16:11:26;;;;;;;5.85;3.50;;;;;;;;;;4991539;28;97108;-79
2022/04/18 16:13:52;;;;;;;9.35;3.25;;;;;;;;;;4993468;28;97850;-78
2022/04/18 16:16:22;;;;;;;9.00;3.40;;;;;;;;;;4977442;28;95491;-77
2022/04/18 16:18:48;;;;;;;8.85;3.45;;;;;;;;;;4975132;28;96762;-78
2022/04/18 16:21:15;;;;;;;7.50;3.30;;;;;;;;;;4979373;28;97683;-78
2022/04/18 16:23:41;;;;;;;9.15;3.35;;;;;;;;;;4995338;28;97170;-77
2022/04/18 16:26:08;;;;;;;6.53;3.42;;;;;;;;;;4993855;28;97370;-77
2022/04/18 16:28:34;;;;;;;5.22;2.83;;;;;;;;;;4994572;28;95458;-77
2022/04/18 16:33:47;;;;;;;6.75;3.25;;;;;;;;;;4992965;28;97401;-78
2022/04/18 16:36:15;;;;;;;5.32;3.05;;;;;;;;;;5001821;28;95184;-79
2022/04/18 16:38:41;;;;;;;5.47;3.13;;;;;;;;;;4992969;28;96936;-77
2022/04/18 16:46:39;;;;;;;5.50;3.10;;;;;;;;;;4992972;28;97307;-76
2022/04/18 16:49:05;;;;;;;9.85;3.17;;;;;;;;;;4994752;28;95313;-76
2022/04/18 16:51:35;;;;;;;8.07;3.00;;;;;;;;;;4993467;28;96922;-76
2022/04/18 16:54:02;;;;;;;6.35;3.00;;;;;;;;;;4993756;28;97389;-77
2022/04/18 16:56:28;;;;;;;5.50;2.90;;;;;;;;;;4993752;28;95471;-78
2022/04/18 16:58:55;;;;;;;8.40;3.05;;;;;;;;;;4991172;28;97651;-76
2022/04/18 17:01:21;;;;;;;6.15;2.70;;;;;;;;;;4990951;28;96579;-78
2022/04/18 17:03:47;;;;;;;13.90;3.10;;;;;;;;;;4975542;28;95538;-76
2022/04/18 17:06:14;;;;;;;5.95;3.40;;;;;;;;;;4997090;28;95736;-76
2022/04/18 17:08:40;;;;;;;5.45;3.30;;;;;;;;;;4992738;28;95192;-77
2022/04/18 17:11:08;;;;;;;11.45;3.60;;;;;;;;;;4992518;28;96900;-78
2022/04/18 17:13:35;;;;;;;6.03;3.25;;;;;;;;;;4975644;28;97394;-77
2022/04/18 17:16:02;;;;;;;10.23;3.13;;;;;;;;;;4992607;28;95465;-76
2022/04/18 17:18:28;;;;;;;5.80;2.95;;;;;;;;;;4991586;28;97000;-80
2022/04/18 17:20:54;;;;;;;6.88;3.63;;;;;;;;;;4975211;28;97592;-81
2022/04/18 17:23:21;;;;;;;5.55;3.63;;;;;;;;;;4993340;28;95301;-76
2022/04/18 17:25:47;;;;;;;7.68;3.20;;;;;;;;;;4993728;28;96819;-77
2022/04/18 17:28:13;;;;;;;10.90;2.88;;;;;;;;;;4996442;28;97597;-76
2022/04/18 17:30:40;;;;;;;7.03;3.22;;;;;;;;;;4990648;28;96964;-75